sensor_id;sensor_type;location;lat;lon;timestamp;temperature;humidity
37594;DHT22;23441;50.856;6.076;2023-04-25T00:00:04;7.00;99.90
37594;DHT22;23441;50.856;6.076;2023-04-25T00:02:33;7.00;99.90
37594;DHT22;23441;50.856;6.076;2023-04-25T00:05:00;7.00;99.90
37594;DHT22;23441;50.856;6.076;2023-04-25T00:07:27;7.00;99.90
37594;DHT22;23441;50.856;6.076;2023-04-25T00:09:53;6.90;99.90
37594;DHT22;23441;50.856;6.076;2023-04-25T00:12:18;6.90;99.90
37594;DHT22;23441;50.856;6.076;2023-04-25T00:14:44;6.90;99.90
37594;DHT22;23441;50.856;6.076;2023-04-25T00:17:11;6.90;99.90
37594;DHT22;23441;50.856;6.076;2023-04-25T00:19:36;6.80;99.90
37594;DHT22;23441;50.856;6.076;2023-04-25T00:22:03;6.90;99.90
37594;DHT22;23441;50.856;6.076;2023-04-25T00:24:28;6.80;99.90
37594;DHT22;23441;50.856;6.076;2023-04-25T00:26:54;6.90;99.90
37594;DHT22;23441;50.856;6.076;2023-04-25T00:29:20;6.80;99.90
37594;DHT22;23441;50.856;6.076;2023-04-25T00:31:45;6.70;99.90
37594;DHT22;23441;50.856;6.076;2023-04-25T00:34:11;6.70;99.90
37594;DHT22;23441;50.856;6.076;2023-04-25T00:36:36;6.80;99.90
37594;DHT22;23441;50.856;6.076;2023-04-25T00:39:02;6.80;99.90
37594;DHT22;23441;50.856;6.076;2023-04-25T00:41:30;6.70;99.90
37594;DHT22;23441;50.856;6.076;2023-04-25T00:43:56;6.70;99.90
37594;DHT22;23441;50.856;6.076;2023-04-25T00:46:23;6.70;99.90
37594;DHT22;23441;50.856;6.076;2023-04-25T00:48:48;6.70;99.90
37594;DHT22;23441;50.856;6.076;2023-04-25T00:51:19;6.70;99.90
37594;DHT22;23441;50.856;6.076;2023-04-25T00:53:45;6.70;99.90
37594;DHT22;23441;50.856;6.076;2023-04-25T00:56:11;6.60;99.90
37594;DHT22;23441;50.856;6.076;2023-04-25T00:58:38;6.70;99.90
37594;DHT22;23441;50.856;6.076;2023-04-25T01:01:04;6.60;99.90
37594;DHT22;23441;50.856;6.076;2023-04-25T01:03:32;6.70;99.90
37594;DHT22;23441;50.856;6.076;2023-04-25T01:06:01;6.70;99.90
37594;DHT22;23441;50.856;6.076;2023-04-25T01:08:27;6.70;99.90
37594;DHT22;23441;50.856;6.076;2023-04-25T01:10:53;6.70;99.90
37594;DHT22;23441;50.856;6.076;2023-04-25T01:13:18;6.70;99.90
37594;DHT22;23441;50.856;6.076;2023-04-25T01:15:45;6.60;99.90
37594;DHT22;23441;50.856;6.076;2023-04-25T01:18:11;6.70;99.90
37594;DHT22;23441;50.856;6.076;2023-04-25T01:20:37;6.70;99.90
37594;DHT22;23441;50.856;6.076;2023-04-25T01:23:04;6.70;99.90
37594;DHT22;23441;50.856;6.076;2023-04-25T01:25:33;6.70;99.90
37594;DHT22;23441;50.856;6.076;2023-04-25T01:27:59;6.70;99.90
37594;DHT22;23441;50.856;6.076;2023-04-25T01:30:26;6.70;99.90
37594;DHT22;23441;50.856;6.076;2023-04-25T01:32:55;6.70;99.90
37594;DHT22;23441;50.856;6.076;2023-04-25T01:35:21;6.70;99.90
37594;DHT22;23441;50.856;6.076;2023-04-25T01:37:49;6.70;99.90
37594;DHT22;23441;50.856;6.076;2023-04-25T01:40:15;6.70;99.90
37594;DHT22;23441;50.856;6.076;2023-04-25T01:42:43;6.70;99.90
37594;DHT22;23441;50.856;6.076;2023-04-25T01:45:10;6.70;99.90
37594;DHT22;23441;50.856;6.076;2023-04-25T01:47:37;6.60;99.90
37594;DHT22;23441;50.856;6.076;2023-04-25T01:50:03;6.60;99.90
37594;DHT22;23441;50.856;6.076;2023-04-25T01:52:29;6.60;99.90
37594;DHT22;23441;50.856;6.076;2023-04-25T01:54:57;6.60;99.90
37594;DHT22;23441;50.856;6.076;2023-04-25T01:57:23;6.60;99.90
37594;DHT22;23441;50.856;6.076;2023-04-25T01:59:49;6.60;99.90
37594;DHT22;23441;50.856;6.076;2023-04-25T02:02:15;6.70;99.90
37594;DHT22;23441;50.856;6.076;2023-04-25T02:04:40;6.70;99.90
37594;DHT22;23441;50.856;6.076;2023-04-25T02:07:06;6.60;99.90
37594;DHT22;23441;50.856;6.076;2023-04-25T02:09:32;6.60;99.90
37594;DHT22;23441;50.856;6.076;2023-04-25T02:11:58;6.60;99.90
37594;DHT22;23441;50.856;6.076;2023-04-25T02:14:23;6.60;99.90
37594;DHT22;23441;50.856;6.076;2023-04-25T02:16:49;6.70;99.90
37594;DHT22;23441;50.856;6.076;2023-04-25T02:19:16;6.60;99.90
37594;DHT22;23441;50.856;6.076;2023-04-25T02:21:42;6.60;99.90
37594;DHT22;23441;50.856;6.076;2023-04-25T02:24:08;6.60;99.90
37594;DHT22;23441;50.856;6.076;2023-04-25T02:26:33;6.60;99.90
37594;DHT22;23441;50.856;6.076;2023-04-25T02:28:59;6.60;99.90
37594;DHT22;23441;50.856;6.076;2023-04-25T02:31:25;6.60;99.90
37594;DHT22;23441;50.856;6.076;2023-04-25T02:33:51;6.60;99.90
37594;DHT22;23441;50.856;6.076;2023-04-25T02:36:17;6.60;99.90
37594;DHT22;23441;50.856;6.076;2023-04-25T02:38:42;6.50;99.90
37594;DHT22;23441;50.856;6.076;2023-04-25T02:41:08;6.50;99.90
37594;DHT22;23441;50.856;6.076;2023-04-25T02:43:33;6.60;99.90
37594;DHT22;23441;50.856;6.076;2023-04-25T02:45:59;6.50;99.90
37594;DHT22;23441;50.856;6.076;2023-04-25T02:48:24;6.50;99.90
37594;DHT22;23441;50.856;6.076;2023-04-25T02:50:50;6.50;99.90
37594;DHT22;23441;50.856;6.076;2023-04-25T02:53:16;6.50;99.90
37594;DHT22;23441;50.856;6.076;2023-04-25T02:55:41;6.40;99.90
37594;DHT22;23441;50.856;6.076;2023-04-25T02:58:07;6.40;99.90
37594;DHT22;23441;50.856;6.076;2023-04-25T03:00:32;6.30;99.90
37594;DHT22;23441;50.856;6.076;2023-04-25T03:02:58;6.40;99.90
37594;DHT22;23441;50.856;6.076;2023-04-25T03:05:24;6.40;99.90
37594;DHT22;23441;50.856;6.076;2023-04-25T03:07:49;6.30;99.90
37594;DHT22;23441;50.856;6.076;2023-04-25T03:10:15;6.30;99.90
37594;DHT22;23441;50.856;6.076;2023-04-25T03:12:41;6.20;99.90
37594;DHT22;23441;50.856;6.076;2023-04-25T03:15:06;6.10;99.90
37594;DHT22;23441;50.856;6.076;2023-04-25T03:17:32;6.20;99.90
37594;DHT22;23441;50.856;6.076;2023-04-25T03:19:58;6.10;99.90
37594;DHT22;23441;50.856;6.076;2023-04-25T03:22:24;6.20;99.90
37594;DHT22;23441;50.856;6.076;2023-04-25T03:24:50;6.20;99.90
37594;DHT22;23441;50.856;6.076;2023-04-25T03:27:16;6.10;99.90
37594;DHT22;23441;50.856;6.076;2023-04-25T03:29:41;6.10;99.90
37594;DHT22;23441;50.856;6.076;2023-04-25T03:32:07;6.20;99.90
37594;DHT22;23441;50.856;6.076;2023-04-25T03:34:32;6.20;99.90
37594;DHT22;23441;50.856;6.076;2023-04-25T03:36:58;6.20;99.90
37594;DHT22;23441;50.856;6.076;2023-04-25T03:39:24;6.20;99.90
37594;DHT22;23441;50.856;6.076;2023-04-25T03:41:49;6.20;99.90
37594;DHT22;23441;50.856;6.076;2023-04-25T03:44:15;6.20;99.90
37594;DHT22;23441;50.856;6.076;2023-04-25T03:46:41;6.20;99.90
37594;DHT22;23441;50.856;6.076;2023-04-25T03:49:06;6.20;99.90
37594;DHT22;23441;50.856;6.076;2023-04-25T03:51:32;6.20;99.90
37594;DHT22;23441;50.856;6.076;2023-04-25T03:53:57;6.10;99.90
37594;DHT22;23441;50.856;6.076;2023-04-25T03:56:23;6.10;99.90
37594;DHT22;23441;50.856;6.076;2023-04-25T03:58:49;6.10;99.90
37594;DHT22;23441;50.856;6.076;2023-04-25T04:01:14;6.10;99.90
37594;DHT22;23441;50.856;6.076;2023-04-25T04:03:40;6.20;99.90
37594;DHT22;23441;50.856;6.076;2023-04-25T04:06:06;6.20;99.90
37594;DHT22;23441;50.856;6.076;2023-04-25T04:08:33;6.10;99.90
37594;DHT22;23441;50.856;6.076;2023-04-25T04:10:59;6.10;99.90
37594;DHT22;23441;50.856;6.076;2023-04-25T04:13:28;6.20;99.90
37594;DHT22;23441;50.856;6.076;2023-04-25T04:15:54;6.10;99.90
37594;DHT22;23441;50.856;6.076;2023-04-25T04:18:19;6.10;99.90
37594;DHT22;23441;50.856;6.076;2023-04-25T04:20:45;6.10;99.90
37594;DHT22;23441;50.856;6.076;2023-04-25T04:23:11;6.10;99.90
37594;DHT22;23441;50.856;6.076;2023-04-25T04:25:37;6.20;99.90
37594;DHT22;23441;50.856;6.076;2023-04-25T04:28:02;6.20;99.90
37594;DHT22;23441;50.856;6.076;2023-04-25T04:30:28;6.20;99.90
37594;DHT22;23441;50.856;6.076;2023-04-25T04:32:57;6.20;99.90
37594;DHT22;23441;50.856;6.076;2023-04-25T04:35:23;6.10;99.90
37594;DHT22;23441;50.856;6.076;2023-04-25T04:37:49;6.10;99.90
37594;DHT22;23441;50.856;6.076;2023-04-25T04:40:15;6.10;99.90
37594;DHT22;23441;50.856;6.076;2023-04-25T04:42:42;6.10;99.90
37594;DHT22;23441;50.856;6.076;2023-04-25T04:45:08;6.00;99.90
37594;DHT22;23441;50.856;6.076;2023-04-25T04:47:34;6.10;99.90
37594;DHT22;23441;50.856;6.076;2023-04-25T04:50:03;6.10;99.90
37594;DHT22;23441;50.856;6.076;2023-04-25T04:52:29;6.10;99.90
37594;DHT22;23441;50.856;6.076;2023-04-25T04:54:55;6.10;99.90
37594;DHT22;23441;50.856;6.076;2023-04-25T04:57:21;6.10;99.90
37594;DHT22;23441;50.856;6.076;2023-04-25T04:59:46;6.10;99.90
37594;DHT22;23441;50.856;6.076;2023-04-25T05:02:12;6.20;99.90
37594;DHT22;23441;50.856;6.076;2023-04-25T05:04:38;6.20;99.90
37594;DHT22;23441;50.856;6.076;2023-04-25T05:07:03;6.30;99.90
37594;DHT22;23441;50.856;6.076;2023-04-25T05:09:29;6.30;99.90
37594;DHT22;23441;50.856;6.076;2023-04-25T05:11:54;6.40;99.90
37594;DHT22;23441;50.856;6.076;2023-04-25T05:14:20;6.30;99.90
37594;DHT22;23441;50.856;6.076;2023-04-25T05:16:47;6.30;99.90
37594;DHT22;23441;50.856;6.076;2023-04-25T05:19:13;6.30;99.90
37594;DHT22;23441;50.856;6.076;2023-04-25T05:21:38;6.30;99.90
37594;DHT22;23441;50.856;6.076;2023-04-25T05:24:04;6.40;99.90
37594;DHT22;23441;50.856;6.076;2023-04-25T05:26:30;6.40;99.90
37594;DHT22;23441;50.856;6.076;2023-04-25T05:28:57;6.50;99.90
37594;DHT22;23441;50.856;6.076;2023-04-25T05:31:23;6.40;99.90
37594;DHT22;23441;50.856;6.076;2023-04-25T05:33:48;6.50;99.90
37594;DHT22;23441;50.856;6.076;2023-04-25T05:36:14;6.40;99.90
37594;DHT22;23441;50.856;6.076;2023-04-25T05:38:39;6.50;99.90
37594;DHT22;23441;50.856;6.076;2023-04-25T05:41:05;6.50;99.90
37594;DHT22;23441;50.856;6.076;2023-04-25T05:43:31;6.50;99.90
37594;DHT22;23441;50.856;6.076;2023-04-25T05:45:56;6.40;99.90
37594;DHT22;23441;50.856;6.076;2023-04-25T05:48:22;6.50;99.90
37594;DHT22;23441;50.856;6.076;2023-04-25T05:50:47;6.50;99.90
37594;DHT22;23441;50.856;6.076;2023-04-25T05:53:13;6.60;99.90
37594;DHT22;23441;50.856;6.076;2023-04-25T05:55:39;6.70;99.90
37594;DHT22;23441;50.856;6.076;2023-04-25T05:58:05;6.80;99.90
37594;DHT22;23441;50.856;6.076;2023-04-25T06:00:31;6.90;99.90
37594;DHT22;23441;50.856;6.076;2023-04-25T06:02:57;7.00;99.90
37594;DHT22;23441;50.856;6.076;2023-04-25T06:05:22;7.10;99.90
37594;DHT22;23441;50.856;6.076;2023-04-25T06:07:48;7.10;99.90
37594;DHT22;23441;50.856;6.076;2023-04-25T06:10:14;7.10;99.90
37594;DHT22;23441;50.856;6.076;2023-04-25T06:12:40;7.20;99.90
37594;DHT22;23441;50.856;6.076;2023-04-25T06:15:06;7.20;99.90
37594;DHT22;23441;50.856;6.076;2023-04-25T06:17:32;7.20;99.90
37594;DHT22;23441;50.856;6.076;2023-04-25T06:19:58;7.30;99.90
37594;DHT22;23441;50.856;6.076;2023-04-25T06:22:24;7.40;99.90
37594;DHT22;23441;50.856;6.076;2023-04-25T06:24:49;7.30;99.90
37594;DHT22;23441;50.856;6.076;2023-04-25T06:27:15;7.40;99.90
37594;DHT22;23441;50.856;6.076;2023-04-25T06:29:40;7.30;99.90
37594;DHT22;23441;50.856;6.076;2023-04-25T06:32:06;7.30;99.90
37594;DHT22;23441;50.856;6.076;2023-04-25T06:34:32;7.50;99.90
37594;DHT22;23441;50.856;6.076;2023-04-25T06:36:57;7.80;99.90
37594;DHT22;23441;50.856;6.076;2023-04-25T06:39:23;8.00;99.90
37594;DHT22;23441;50.856;6.076;2023-04-25T06:41:50;8.30;99.90
37594;DHT22;23441;50.856;6.076;2023-04-25T06:44:15;8.40;99.90
37594;DHT22;23441;50.856;6.076;2023-04-25T06:46:41;8.30;99.90
37594;DHT22;23441;50.856;6.076;2023-04-25T06:49:07;8.10;99.90
37594;DHT22;23441;50.856;6.076;2023-04-25T06:51:32;7.90;99.90
37594;DHT22;23441;50.856;6.076;2023-04-25T06:53:59;7.90;99.90
37594;DHT22;23441;50.856;6.076;2023-04-25T06:56:25;7.80;99.90
37594;DHT22;23441;50.856;6.076;2023-04-25T06:58:50;7.80;99.90
37594;DHT22;23441;50.856;6.076;2023-04-25T07:01:16;7.80;99.90
37594;DHT22;23441;50.856;6.076;2023-04-25T07:03:42;7.60;99.90
37594;DHT22;23441;50.856;6.076;2023-04-25T07:06:07;7.50;99.90
37594;DHT22;23441;50.856;6.076;2023-04-25T07:08:33;7.50;99.90
37594;DHT22;23441;50.856;6.076;2023-04-25T07:10:59;7.50;99.90
37594;DHT22;23441;50.856;6.076;2023-04-25T07:13:24;7.60;99.90
37594;DHT22;23441;50.856;6.076;2023-04-25T07:15:50;7.60;99.90
37594;DHT22;23441;50.856;6.076;2023-04-25T07:18:16;7.70;99.90
37594;DHT22;23441;50.856;6.076;2023-04-25T07:20:42;7.70;99.90
37594;DHT22;23441;50.856;6.076;2023-04-25T07:23:07;7.80;99.90
37594;DHT22;23441;50.856;6.076;2023-04-25T07:25:33;7.90;99.90
37594;DHT22;23441;50.856;6.076;2023-04-25T07:27:58;7.90;99.90
37594;DHT22;23441;50.856;6.076;2023-04-25T07:30:24;7.80;99.90
37594;DHT22;23441;50.856;6.076;2023-04-25T07:32:50;7.70;99.90
37594;DHT22;23441;50.856;6.076;2023-04-25T07:35:16;7.70;99.90
37594;DHT22;23441;50.856;6.076;2023-04-25T07:37:42;7.60;99.90
37594;DHT22;23441;50.856;6.076;2023-04-25T07:40:09;7.60;99.90
37594;DHT22;23441;50.856;6.076;2023-04-25T07:42:35;7.60;99.90
37594;DHT22;23441;50.856;6.076;2023-04-25T07:45:01;7.90;99.90
37594;DHT22;23441;50.856;6.076;2023-04-25T07:47:27;8.20;99.90
37594;DHT22;23441;50.856;6.076;2023-04-25T07:49:52;8.30;99.90
37594;DHT22;23441;50.856;6.076;2023-04-25T07:52:18;8.50;99.90
37594;DHT22;23441;50.856;6.076;2023-04-25T07:54:43;8.70;99.90
37594;DHT22;23441;50.856;6.076;2023-04-25T07:57:09;8.90;99.90
37594;DHT22;23441;50.856;6.076;2023-04-25T07:59:35;8.90;99.90
37594;DHT22;23441;50.856;6.076;2023-04-25T08:02:01;8.90;99.90
37594;DHT22;23441;50.856;6.076;2023-04-25T08:04:27;8.80;99.90
37594;DHT22;23441;50.856;6.076;2023-04-25T08:06:53;9.00;99.90
37594;DHT22;23441;50.856;6.076;2023-04-25T08:09:19;8.80;99.90
37594;DHT22;23441;50.856;6.076;2023-04-25T08:11:45;8.80;99.90
37594;DHT22;23441;50.856;6.076;2023-04-25T08:14:12;8.80;99.90
37594;DHT22;23441;50.856;6.076;2023-04-25T08:16:37;8.90;99.90
37594;DHT22;23441;50.856;6.076;2023-04-25T08:19:03;8.80;99.90
37594;DHT22;23441;50.856;6.076;2023-04-25T08:21:29;8.90;99.90
37594;DHT22;23441;50.856;6.076;2023-04-25T08:23:54;9.20;99.90
37594;DHT22;23441;50.856;6.076;2023-04-25T08:26:20;9.20;99.90
37594;DHT22;23441;50.856;6.076;2023-04-25T08:28:46;9.10;99.90
37594;DHT22;23441;50.856;6.076;2023-04-25T08:31:12;9.40;99.90
37594;DHT22;23441;50.856;6.076;2023-04-25T08:33:37;9.60;99.90
37594;DHT22;23441;50.856;6.076;2023-04-25T08:36:03;9.80;99.90
37594;DHT22;23441;50.856;6.076;2023-04-25T08:38:29;10.00;99.90
37594;DHT22;23441;50.856;6.076;2023-04-25T08:40:55;10.20;99.90
37594;DHT22;23441;50.856;6.076;2023-04-25T08:43:23;10.00;99.90
37594;DHT22;23441;50.856;6.076;2023-04-25T08:45:53;10.00;99.90
37594;DHT22;23441;50.856;6.076;2023-04-25T08:48:24;10.10;99.90
37594;DHT22;23441;50.856;6.076;2023-04-25T08:50:53;10.30;99.90
37594;DHT22;23441;50.856;6.076;2023-04-25T08:53:26;10.30;99.90
37594;DHT22;23441;50.856;6.076;2023-04-25T08:55:56;10.30;99.90
37594;DHT22;23441;50.856;6.076;2023-04-25T08:58:23;10.20;99.90
37594;DHT22;23441;50.856;6.076;2023-04-25T09:00:50;10.40;99.90
37594;DHT22;23441;50.856;6.076;2023-04-25T09:03:17;10.80;99.90
37594;DHT22;23441;50.856;6.076;2023-04-25T09:05:43;10.90;99.10
37594;DHT22;23441;50.856;6.076;2023-04-25T09:08:09;10.50;99.60
37594;DHT22;23441;50.856;6.076;2023-04-25T09:10:35;10.60;99.90
37594;DHT22;23441;50.856;6.076;2023-04-25T09:13:11;10.60;99.90
37594;DHT22;23441;50.856;6.076;2023-04-25T09:16:00;10.30;98.70
37594;DHT22;23441;50.856;6.076;2023-04-25T09:18:29;9.60;99.90
37594;DHT22;23441;50.856;6.076;2023-04-25T09:20:56;9.70;99.90
37594;DHT22;23441;50.856;6.076;2023-04-25T09:23:23;9.40;99.90
37594;DHT22;23441;50.856;6.076;2023-04-25T09:25:53;9.30;99.90
37594;DHT22;23441;50.856;6.076;2023-04-25T09:28:26;9.10;99.90
37594;DHT22;23441;50.856;6.076;2023-04-25T09:30:56;8.90;99.90
37594;DHT22;23441;50.856;6.076;2023-04-25T09:33:28;8.90;99.90
37594;DHT22;23441;50.856;6.076;2023-04-25T09:36:04;8.80;99.90
37594;DHT22;23441;50.856;6.076;2023-04-25T09:38:31;8.80;99.90
37594;DHT22;23441;50.856;6.076;2023-04-25T09:40:58;8.70;99.90
37594;DHT22;23441;50.856;6.076;2023-04-25T09:43:24;8.70;99.90
37594;DHT22;23441;50.856;6.076;2023-04-25T09:45:51;8.70;99.90
37594;DHT22;23441;50.856;6.076;2023-04-25T09:48:19;8.80;99.90
37594;DHT22;23441;50.856;6.076;2023-04-25T09:50:54;8.90;99.90
37594;DHT22;23441;50.856;6.076;2023-04-25T09:53:29;9.00;99.90
37594;DHT22;23441;50.856;6.076;2023-04-25T09:55:55;9.00;99.90
37594;DHT22;23441;50.856;6.076;2023-04-25T09:58:24;8.90;99.90
37594;DHT22;23441;50.856;6.076;2023-04-25T10:00:51;9.00;99.90
37594;DHT22;23441;50.856;6.076;2023-04-25T10:03:20;9.20;99.90
37594;DHT22;23441;50.856;6.076;2023-04-25T10:05:48;9.60;99.90
37594;DHT22;23441;50.856;6.076;2023-04-25T10:08:14;9.80;99.90
37594;DHT22;23441;50.856;6.076;2023-04-25T10:10:42;10.10;99.90
37594;DHT22;23441;50.856;6.076;2023-04-25T10:13:08;10.30;99.90
37594;DHT22;23441;50.856;6.076;2023-04-25T10:15:37;10.40;99.90
37594;DHT22;23441;50.856;6.076;2023-04-25T10:18:03;10.40;99.90
37594;DHT22;23441;50.856;6.076;2023-04-25T10:20:30;10.30;99.90
37594;DHT22;23441;50.856;6.076;2023-04-25T10:23:03;10.10;99.90
37594;DHT22;23441;50.856;6.076;2023-04-25T10:25:33;10.10;99.90
37594;DHT22;23441;50.856;6.076;2023-04-25T10:27:59;10.00;99.90
37594;DHT22;23441;50.856;6.076;2023-04-25T10:30:26;10.30;99.90
37594;DHT22;23441;50.856;6.076;2023-04-25T10:32:54;10.40;99.90
37594;DHT22;23441;50.856;6.076;2023-04-25T10:35:29;10.30;99.90
37594;DHT22;23441;50.856;6.076;2023-04-25T10:38:11;10.20;99.90
37594;DHT22;23441;50.856;6.076;2023-04-25T10:40:39;10.30;99.90
37594;DHT22;23441;50.856;6.076;2023-04-25T10:43:33;10.40;99.90
37594;DHT22;23441;50.856;6.076;2023-04-25T10:45:59;10.50;99.90
37594;DHT22;23441;50.856;6.076;2023-04-25T10:48:27;10.60;99.90
37594;DHT22;23441;50.856;6.076;2023-04-25T10:51:15;10.40;99.20
37594;DHT22;23441;50.856;6.076;2023-04-25T10:53:41;10.60;99.90
37594;DHT22;23441;50.856;6.076;2023-04-25T10:59:14;10.80;99.90
37594;DHT22;23441;50.856;6.076;2023-04-25T11:01:41;10.70;99.30
37594;DHT22;23441;50.856;6.076;2023-04-25T11:04:29;10.40;99.00
37594;DHT22;23441;50.856;6.076;2023-04-25T11:09:36;10.00;99.90
37594;DHT22;23441;50.856;6.076;2023-04-25T11:12:03;9.80;99.90
37594;DHT22;23441;50.856;6.076;2023-04-25T11:14:29;9.60;99.90
37594;DHT22;23441;50.856;6.076;2023-04-25T11:16:59;9.40;99.90
37594;DHT22;23441;50.856;6.076;2023-04-25T11:19:26;9.30;99.90
37594;DHT22;23441;50.856;6.076;2023-04-25T11:21:58;9.30;99.90
37594;DHT22;23441;50.856;6.076;2023-04-25T11:24:32;9.20;99.90
37594;DHT22;23441;50.856;6.076;2023-04-25T11:27:02;9.10;99.90
37594;DHT22;23441;50.856;6.076;2023-04-25T11:29:31;9.00;99.90
37594;DHT22;23441;50.856;6.076;2023-04-25T11:31:58;8.80;99.90
37594;DHT22;23441;50.856;6.076;2023-04-25T11:34:31;9.00;99.90
37594;DHT22;23441;50.856;6.076;2023-04-25T11:36:58;9.00;99.90
37594;DHT22;23441;50.856;6.076;2023-04-25T11:39:25;9.00;99.90
37594;DHT22;23441;50.856;6.076;2023-04-25T11:41:52;9.10;99.90
37594;DHT22;23441;50.856;6.076;2023-04-25T11:44:19;9.10;99.90
37594;DHT22;23441;50.856;6.076;2023-04-25T11:46:45;9.20;99.90
37594;DHT22;23441;50.856;6.076;2023-04-25T11:49:11;9.30;99.90
37594;DHT22;23441;50.856;6.076;2023-04-25T11:51:41;9.40;99.90
37594;DHT22;23441;50.856;6.076;2023-04-25T11:54:07;9.50;99.90
37594;DHT22;23441;50.856;6.076;2023-04-25T11:56:33;9.50;99.90
37594;DHT22;23441;50.856;6.076;2023-04-25T11:59:06;9.50;99.90
37594;DHT22;23441;50.856;6.076;2023-04-25T12:01:33;9.50;99.90
37594;DHT22;23441;50.856;6.076;2023-04-25T12:04:16;9.70;99.90
37594;DHT22;23441;50.856;6.076;2023-04-25T12:06:43;9.80;99.60
37594;DHT22;23441;50.856;6.076;2023-04-25T12:09:11;10.00;99.90
37594;DHT22;23441;50.856;6.076;2023-04-25T12:11:48;10.10;99.90
37594;DHT22;23441;50.856;6.076;2023-04-25T12:14:33;10.50;99.90
37594;DHT22;23441;50.856;6.076;2023-04-25T12:17:02;11.20;99.40
37594;DHT22;23441;50.856;6.076;2023-04-25T12:19:35;11.40;97.20
37594;DHT22;23441;50.856;6.076;2023-04-25T12:22:22;11.30;96.80
37594;DHT22;23441;50.856;6.076;2023-04-25T12:24:47;11.30;96.20
37594;DHT22;23441;50.856;6.076;2023-04-25T12:27:15;11.20;97.40
37594;DHT22;23441;50.856;6.076;2023-04-25T12:29:51;11.20;96.70
37594;DHT22;23441;50.856;6.076;2023-04-25T12:32:17;11.20;97.50
37594;DHT22;23441;50.856;6.076;2023-04-25T12:34:44;11.60;97.50
37594;DHT22;23441;50.856;6.076;2023-04-25T12:37:10;11.70;96.50
37594;DHT22;23441;50.856;6.076;2023-04-25T12:39:36;11.80;96.20
37594;DHT22;23441;50.856;6.076;2023-04-25T12:42:02;11.30;96.60
37594;DHT22;23441;50.856;6.076;2023-04-25T12:44:28;11.40;97.70
37594;DHT22;23441;50.856;6.076;2023-04-25T12:46:54;11.80;97.60
37594;DHT22;23441;50.856;6.076;2023-04-25T12:49:20;11.80;97.00
37594;DHT22;23441;50.856;6.076;2023-04-25T12:51:46;11.80;98.10
37594;DHT22;23441;50.856;6.076;2023-04-25T12:54:12;11.90;96.80
37594;DHT22;23441;50.856;6.076;2023-04-25T12:56:40;12.00;97.20
37594;DHT22;23441;50.856;6.076;2023-04-25T12:59:06;12.10;97.50
37594;DHT22;23441;50.856;6.076;2023-04-25T13:01:32;11.80;97.30
37594;DHT22;23441;50.856;6.076;2023-04-25T13:03:58;11.80;97.00
37594;DHT22;23441;50.856;6.076;2023-04-25T13:06:23;12.20;96.90
37594;DHT22;23441;50.856;6.076;2023-04-25T13:08:49;12.30;97.30
37594;DHT22;23441;50.856;6.076;2023-04-25T13:11:15;12.30;97.50
37594;DHT22;23441;50.856;6.076;2023-04-25T13:13:41;12.90;98.70
37594;DHT22;23441;50.856;6.076;2023-04-25T13:16:08;13.10;96.40
37594;DHT22;23441;50.856;6.076;2023-04-25T13:18:35;13.30;95.60
37594;DHT22;23441;50.856;6.076;2023-04-25T13:21:00;13.60;95.00
37594;DHT22;23441;50.856;6.076;2023-04-25T13:23:27;13.40;93.70
37594;DHT22;23441;50.856;6.076;2023-04-25T13:25:54;13.30;94.20
37594;DHT22;23441;50.856;6.076;2023-04-25T13:28:20;12.70;94.10
37594;DHT22;23441;50.856;6.076;2023-04-25T13:30:47;12.00;95.30
37594;DHT22;23441;50.856;6.076;2023-04-25T13:33:14;11.50;97.80
37594;DHT22;23441;50.856;6.076;2023-04-25T13:35:40;10.40;98.60
37594;DHT22;23441;50.856;6.076;2023-04-25T13:38:06;9.90;99.90
37594;DHT22;23441;50.856;6.076;2023-04-25T13:40:32;9.70;99.90
37594;DHT22;23441;50.856;6.076;2023-04-25T13:42:58;9.50;99.90
37594;DHT22;23441;50.856;6.076;2023-04-25T13:45:24;9.40;99.90
37594;DHT22;23441;50.856;6.076;2023-04-25T13:47:50;9.50;99.90
37594;DHT22;23441;50.856;6.076;2023-04-25T13:50:16;9.50;99.90
37594;DHT22;23441;50.856;6.076;2023-04-25T13:52:42;9.60;99.90
37594;DHT22;23441;50.856;6.076;2023-04-25T13:55:09;9.70;99.80
37594;DHT22;23441;50.856;6.076;2023-04-25T13:57:35;9.60;99.40
37594;DHT22;23441;50.856;6.076;2023-04-25T14:00:03;9.70;98.90
37594;DHT22;23441;50.856;6.076;2023-04-25T14:02:37;9.60;98.40
37594;DHT22;23441;50.856;6.076;2023-04-25T14:05:06;9.70;99.30
37594;DHT22;23441;50.856;6.076;2023-04-25T14:07:33;9.70;98.80
37594;DHT22;23441;50.856;6.076;2023-04-25T14:10:00;9.80;98.20
37594;DHT22;23441;50.856;6.076;2023-04-25T14:12:26;9.80;99.00
37594;DHT22;23441;50.856;6.076;2023-04-25T14:14:52;9.90;99.90
37594;DHT22;23441;50.856;6.076;2023-04-25T14:17:19;10.00;99.30
37594;DHT22;23441;50.856;6.076;2023-04-25T14:19:45;10.20;99.90
37594;DHT22;23441;50.856;6.076;2023-04-25T14:22:14;10.20;98.70
37594;DHT22;23441;50.856;6.076;2023-04-25T14:24:40;10.10;99.70
37594;DHT22;23441;50.856;6.076;2023-04-25T14:27:06;10.30;99.90
37594;DHT22;23441;50.856;6.076;2023-04-25T14:29:32;10.30;99.60
37594;DHT22;23441;50.856;6.076;2023-04-25T14:31:57;10.40;99.90
37594;DHT22;23441;50.856;6.076;2023-04-25T14:34:24;10.50;99.90
37594;DHT22;23441;50.856;6.076;2023-04-25T14:36:51;10.30;99.90
37594;DHT22;23441;50.856;6.076;2023-04-25T14:39:17;10.30;99.90
37594;DHT22;23441;50.856;6.076;2023-04-25T14:41:44;10.30;99.90
37594;DHT22;23441;50.856;6.076;2023-04-25T14:44:09;10.10;99.90
37594;DHT22;23441;50.856;6.076;2023-04-25T14:46:35;10.10;99.90
37594;DHT22;23441;50.856;6.076;2023-04-25T14:49:01;10.00;99.90
37594;DHT22;23441;50.856;6.076;2023-04-25T14:51:27;10.00;99.90
37594;DHT22;23441;50.856;6.076;2023-04-25T14:53:53;10.10;99.90
37594;DHT22;23441;50.856;6.076;2023-04-25T14:56:19;10.10;99.00
37594;DHT22;23441;50.856;6.076;2023-04-25T14:58:44;9.90;99.10
37594;DHT22;23441;50.856;6.076;2023-04-25T15:01:11;10.00;99.90
37594;DHT22;23441;50.856;6.076;2023-04-25T15:03:38;10.10;99.50
37594;DHT22;23441;50.856;6.076;2023-04-25T15:06:05;10.10;99.50
37594;DHT22;23441;50.856;6.076;2023-04-25T15:08:31;10.20;99.40
37594;DHT22;23441;50.856;6.076;2023-04-25T15:10:58;10.20;99.40
37594;DHT22;23441;50.856;6.076;2023-04-25T15:13:23;10.30;99.10
37594;DHT22;23441;50.856;6.076;2023-04-25T15:15:50;10.40;98.60
37594;DHT22;23441;50.856;6.076;2023-04-25T15:18:17;10.50;99.70
37594;DHT22;23441;50.856;6.076;2023-04-25T15:20:43;10.50;98.20
37594;DHT22;23441;50.856;6.076;2023-04-25T15:23:09;10.70;98.80
37594;DHT22;23441;50.856;6.076;2023-04-25T15:25:34;10.60;98.20
37594;DHT22;23441;50.856;6.076;2023-04-25T15:28:00;10.70;97.60
37594;DHT22;23441;50.856;6.076;2023-04-25T15:30:25;10.80;97.80
37594;DHT22;23441;50.856;6.076;2023-04-25T15:32:51;10.90;97.80
37594;DHT22;23441;50.856;6.076;2023-04-25T15:35:17;11.00;97.50
37594;DHT22;23441;50.856;6.076;2023-04-25T15:37:42;11.00;97.80
37594;DHT22;23441;50.856;6.076;2023-04-25T15:40:10;11.00;96.70
37594;DHT22;23441;50.856;6.076;2023-04-25T15:42:38;10.70;97.00
37594;DHT22;23441;50.856;6.076;2023-04-25T15:45:05;10.50;97.10